sensor_id;sensor_type;location;lat;lon;timestamp;temperature;humidity
45868;DHT22;31582;45.490;7.860;2022-09-03T00:00:16;19.40;77.50
45868;DHT22;31582;45.490;7.860;2022-09-03T00:03:03;19.50;77.70
45868;DHT22;31582;45.490;7.860;2022-09-03T00:05:36;19.50;77.50
45868;DHT22;31582;45.490;7.860;2022-09-03T00:10:55;19.50;77.00
45868;DHT22;31582;45.490;7.860;2022-09-03T00:13:24;19.50;76.80
45868;DHT22;31582;45.490;7.860;2022-09-03T00:15:53;19.50;77.10
45868;DHT22;31582;45.490;7.860;2022-09-03T00:18:22;19.50;76.60
45868;DHT22;31582;45.490;7.860;2022-09-03T00:20:52;19.50;76.50
45868;DHT22;31582;45.490;7.860;2022-09-03T00:23:20;19.50;76.70
45868;DHT22;31582;45.490;7.860;2022-09-03T00:26:13;19.50;77.10
45868;DHT22;31582;45.490;7.860;2022-09-03T00:28:44;19.50;76.50
45868;DHT22;31582;45.490;7.860;2022-09-03T00:31:14;19.50;76.70
45868;DHT22;31582;45.490;7.860;2022-09-03T00:33:45;19.50;77.00
45868;DHT22;31582;45.490;7.860;2022-09-03T00:36:17;19.60;76.40
45868;DHT22;31582;45.490;7.860;2022-09-03T00:38:45;19.60;76.30
45868;DHT22;31582;45.490;7.860;2022-09-03T00:41:24;19.60;76.10
45868;DHT22;31582;45.490;7.860;2022-09-03T00:49:11;19.70;76.10
45868;DHT22;31582;45.490;7.860;2022-09-03T00:57:22;19.60;76.40
45868;DHT22;31582;45.490;7.860;2022-09-03T01:00:09;19.60;77.20
45868;DHT22;31582;45.490;7.860;2022-09-03T01:05:34;19.50;78.90
45868;DHT22;31582;45.490;7.860;2022-09-03T01:08:25;19.40;80.00
45868;DHT22;31582;45.490;7.860;2022-09-03T01:13:32;19.30;80.70
45868;DHT22;31582;45.490;7.860;2022-09-03T01:21:21;19.20;81.50
45868;DHT22;31582;45.490;7.860;2022-09-03T01:34:24;19.00;83.80
45868;DHT22;31582;45.490;7.860;2022-09-03T01:39:39;19.00;83.50
45868;DHT22;31582;45.490;7.860;2022-09-03T01:44:52;19.10;83.60
45868;DHT22;31582;45.490;7.860;2022-09-03T01:50:05;19.20;80.50
45868;DHT22;31582;45.490;7.860;2022-09-03T02:03:24;19.50;78.20
45868;DHT22;31582;45.490;7.860;2022-09-03T02:05:52;19.50;78.50
45868;DHT22;31582;45.490;7.860;2022-09-03T02:08:19;19.50;78.90
45868;DHT22;31582;45.490;7.860;2022-09-03T02:10:47;19.50;79.60
45868;DHT22;31582;45.490;7.860;2022-09-03T02:13:17;19.50;79.80
45868;DHT22;31582;45.490;7.860;2022-09-03T02:15:45;19.50;79.10
45868;DHT22;31582;45.490;7.860;2022-09-03T02:18:28;19.50;79.40
45868;DHT22;31582;45.490;7.860;2022-09-03T02:20:56;19.50;78.10
45868;DHT22;31582;45.490;7.860;2022-09-03T02:23:24;19.60;78.10
45868;DHT22;31582;45.490;7.860;2022-09-03T02:25:54;19.60;78.80
45868;DHT22;31582;45.490;7.860;2022-09-03T02:28:22;19.60;79.80
45868;DHT22;31582;45.490;7.860;2022-09-03T02:30:49;19.50;80.90
45868;DHT22;31582;45.490;7.860;2022-09-03T02:33:16;19.50;81.50
45868;DHT22;31582;45.490;7.860;2022-09-03T02:35:43;19.40;83.10
45868;DHT22;31582;45.490;7.860;2022-09-03T02:38:17;19.30;82.90
45868;DHT22;31582;45.490;7.860;2022-09-03T02:40:44;19.30;83.00
45868;DHT22;31582;45.490;7.860;2022-09-03T02:46:04;19.30;83.90
45868;DHT22;31582;45.490;7.860;2022-09-03T02:48:32;19.20;82.80
45868;DHT22;31582;45.490;7.860;2022-09-03T02:50:59;19.20;83.30
45868;DHT22;31582;45.490;7.860;2022-09-03T02:53:26;19.20;84.10
45868;DHT22;31582;45.490;7.860;2022-09-03T02:56:00;19.20;83.50
45868;DHT22;31582;45.490;7.860;2022-09-03T02:58:27;19.20;83.10
45868;DHT22;31582;45.490;7.860;2022-09-03T03:00:54;19.20;83.80
45868;DHT22;31582;45.490;7.860;2022-09-03T03:03:21;19.20;83.90
45868;DHT22;31582;45.490;7.860;2022-09-03T03:05:48;19.20;84.60
45868;DHT22;31582;45.490;7.860;2022-09-03T03:08:16;19.10;84.20
45868;DHT22;31582;45.490;7.860;2022-09-03T03:10:47;19.10;84.20
45868;DHT22;31582;45.490;7.860;2022-09-03T03:13:15;19.10;83.90
45868;DHT22;31582;45.490;7.860;2022-09-03T03:15:42;19.10;83.60
45868;DHT22;31582;45.490;7.860;2022-09-03T03:18:10;19.10;83.40
45868;DHT22;31582;45.490;7.860;2022-09-03T03:20:40;19.20;83.10
45868;DHT22;31582;45.490;7.860;2022-09-03T03:23:07;19.20;83.20
45868;DHT22;31582;45.490;7.860;2022-09-03T03:25:35;19.20;86.10
45868;DHT22;31582;45.490;7.860;2022-09-03T03:28:02;19.10;86.60
45868;DHT22;31582;45.490;7.860;2022-09-03T03:30:30;19.10;86.60
45868;DHT22;31582;45.490;7.860;2022-09-03T03:32:57;19.10;88.20
45868;DHT22;31582;45.490;7.860;2022-09-03T03:35:23;19.00;90.60
45868;DHT22;31582;45.490;7.860;2022-09-03T03:37:50;19.00;90.60
45868;DHT22;31582;45.490;7.860;2022-09-03T03:40:17;18.90;91.70
45868;DHT22;31582;45.490;7.860;2022-09-03T03:42:45;18.90;91.80
45868;DHT22;31582;45.490;7.860;2022-09-03T03:45:12;18.90;92.00
45868;DHT22;31582;45.490;7.860;2022-09-03T03:47:39;18.80;92.00
45868;DHT22;31582;45.490;7.860;2022-09-03T03:50:05;18.80;92.30
45868;DHT22;31582;45.490;7.860;2022-09-03T03:52:32;18.70;92.60
45868;DHT22;31582;45.490;7.860;2022-09-03T03:54:59;18.70;92.80
45868;DHT22;31582;45.490;7.860;2022-09-03T03:57:28;18.70;92.60
45868;DHT22;31582;45.490;7.860;2022-09-03T03:59:55;18.70;92.30
45868;DHT22;31582;45.490;7.860;2022-09-03T04:02:22;18.70;91.90
45868;DHT22;31582;45.490;7.860;2022-09-03T04:04:49;18.70;91.70
45868;DHT22;31582;45.490;7.860;2022-09-03T04:07:16;18.80;91.60
45868;DHT22;31582;45.490;7.860;2022-09-03T04:09:42;18.70;92.10
45868;DHT22;31582;45.490;7.860;2022-09-03T04:12:09;18.70;91.70
45868;DHT22;31582;45.490;7.860;2022-09-03T04:14:36;18.70;91.30
45868;DHT22;31582;45.490;7.860;2022-09-03T04:17:03;18.70;91.10
45868;DHT22;31582;45.490;7.860;2022-09-03T04:19:30;18.70;90.90
45868;DHT22;31582;45.490;7.860;2022-09-03T04:21:56;18.70;90.80
45868;DHT22;31582;45.490;7.860;2022-09-03T04:24:23;18.70;91.00
45868;DHT22;31582;45.490;7.860;2022-09-03T04:26:50;18.70;90.50
45868;DHT22;31582;45.490;7.860;2022-09-03T04:29:19;18.70;90.30
45868;DHT22;31582;45.490;7.860;2022-09-03T04:31:47;18.70;90.10
45868;DHT22;31582;45.490;7.860;2022-09-03T04:34:32;18.70;90.20
45868;DHT22;31582;45.490;7.860;2022-09-03T04:36:59;18.70;90.10
45868;DHT22;31582;45.490;7.860;2022-09-03T04:39:26;18.70;89.10
45868;DHT22;31582;45.490;7.860;2022-09-03T04:41:53;18.70;87.90
45868;DHT22;31582;45.490;7.860;2022-09-03T04:44:20;18.70;87.20
45868;DHT22;31582;45.490;7.860;2022-09-03T04:46:47;18.70;86.60
45868;DHT22;31582;45.490;7.860;2022-09-03T04:49:13;18.70;86.30
45868;DHT22;31582;45.490;7.860;2022-09-03T04:51:40;18.70;86.80
45868;DHT22;31582;45.490;7.860;2022-09-03T04:54:07;18.60;89.20
45868;DHT22;31582;45.490;7.860;2022-09-03T04:56:37;18.60;90.00
45868;DHT22;31582;45.490;7.860;2022-09-03T04:59:05;18.50;89.90
45868;DHT22;31582;45.490;7.860;2022-09-03T05:01:32;18.60;90.10
45868;DHT22;31582;45.490;7.860;2022-09-03T05:04:00;18.50;90.20
45868;DHT22;31582;45.490;7.860;2022-09-03T05:06:27;18.50;90.60
45868;DHT22;31582;45.490;7.860;2022-09-03T05:08:54;18.50;90.50
45868;DHT22;31582;45.490;7.860;2022-09-03T05:11:22;18.50;91.00
45868;DHT22;31582;45.490;7.860;2022-09-03T05:13:50;18.50;91.30
45868;DHT22;31582;45.490;7.860;2022-09-03T05:16:18;18.50;91.90
45868;DHT22;31582;45.490;7.860;2022-09-03T05:18:45;18.50;91.50
45868;DHT22;31582;45.490;7.860;2022-09-03T05:21:16;18.50;91.80
45868;DHT22;31582;45.490;7.860;2022-09-03T05:23:44;18.50;91.30
45868;DHT22;31582;45.490;7.860;2022-09-03T05:26:12;18.50;90.90
45868;DHT22;31582;45.490;7.860;2022-09-03T05:28:40;18.50;90.80
45868;DHT22;31582;45.490;7.860;2022-09-03T05:33:40;18.60;90.30
45868;DHT22;31582;45.490;7.860;2022-09-03T05:36:08;18.60;89.80
45868;DHT22;31582;45.490;7.860;2022-09-03T05:38:35;18.60;88.90
45868;DHT22;31582;45.490;7.860;2022-09-03T05:41:03;18.60;88.60
45868;DHT22;31582;45.490;7.860;2022-09-03T05:43:31;18.70;88.20
45868;DHT22;31582;45.490;7.860;2022-09-03T05:45:58;18.70;88.00
45868;DHT22;31582;45.490;7.860;2022-09-03T05:48:28;18.80;88.10
45868;DHT22;31582;45.490;7.860;2022-09-03T05:50:59;18.80;87.80
45868;DHT22;31582;45.490;7.860;2022-09-03T05:53:29;18.90;88.40
45868;DHT22;31582;45.490;7.860;2022-09-03T05:55:57;18.90;90.10
45868;DHT22;31582;45.490;7.860;2022-09-03T05:58:24;19.00;90.00
45868;DHT22;31582;45.490;7.860;2022-09-03T06:00:52;19.00;89.80
45868;DHT22;31582;45.490;7.860;2022-09-03T06:03:18;19.00;90.00
45868;DHT22;31582;45.490;7.860;2022-09-03T06:05:52;19.00;89.60
45868;DHT22;31582;45.490;7.860;2022-09-03T06:08:20;19.10;90.10
45868;DHT22;31582;45.490;7.860;2022-09-03T06:10:47;19.10;90.10
45868;DHT22;31582;45.490;7.860;2022-09-03T06:13:14;19.10;89.80
45868;DHT22;31582;45.490;7.860;2022-09-03T06:15:40;19.20;90.00
45868;DHT22;31582;45.490;7.860;2022-09-03T06:18:07;19.20;89.80
45868;DHT22;31582;45.490;7.860;2022-09-03T06:20:34;19.20;89.70
45868;DHT22;31582;45.490;7.860;2022-09-03T06:23:02;19.20;89.40
45868;DHT22;31582;45.490;7.860;2022-09-03T06:25:29;19.20;89.90
45868;DHT22;31582;45.490;7.860;2022-09-03T06:27:57;19.20;90.30
45868;DHT22;31582;45.490;7.860;2022-09-03T06:30:24;19.20;90.30
45868;DHT22;31582;45.490;7.860;2022-09-03T06:32:52;19.10;91.00
45868;DHT22;31582;45.490;7.860;2022-09-03T06:35:19;19.10;90.80
45868;DHT22;31582;45.490;7.860;2022-09-03T06:37:46;19.10;91.20
45868;DHT22;31582;45.490;7.860;2022-09-03T06:40:13;19.10;91.70
45868;DHT22;31582;45.490;7.860;2022-09-03T06:42:54;19.10;91.50
45868;DHT22;31582;45.490;7.860;2022-09-03T06:45:21;19.10;91.20
45868;DHT22;31582;45.490;7.860;2022-09-03T06:47:48;19.20;91.00
45868;DHT22;31582;45.490;7.860;2022-09-03T06:50:15;19.20;91.40
45868;DHT22;31582;45.490;7.860;2022-09-03T06:52:43;19.20;91.10
45868;DHT22;31582;45.490;7.860;2022-09-03T06:55:10;19.20;92.00
45868;DHT22;31582;45.490;7.860;2022-09-03T06:57:37;19.10;91.60
45868;DHT22;31582;45.490;7.860;2022-09-03T07:00:04;19.10;91.40
45868;DHT22;31582;45.490;7.860;2022-09-03T07:02:31;19.20;90.90
45868;DHT22;31582;45.490;7.860;2022-09-03T07:04:59;19.20;90.60
45868;DHT22;31582;45.490;7.860;2022-09-03T07:07:25;19.30;90.70
45868;DHT22;31582;45.490;7.860;2022-09-03T07:09:52;19.30;90.70
45868;DHT22;31582;45.490;7.860;2022-09-03T07:12:19;19.30;90.60
45868;DHT22;31582;45.490;7.860;2022-09-03T07:14:46;19.30;90.70
45868;DHT22;31582;45.490;7.860;2022-09-03T07:17:16;19.40;90.70
45868;DHT22;31582;45.490;7.860;2022-09-03T07:19:43;19.40;91.00
45868;DHT22;31582;45.490;7.860;2022-09-03T07:22:09;19.40;91.30
45868;DHT22;31582;45.490;7.860;2022-09-03T07:24:37;19.40;90.90
45868;DHT22;31582;45.490;7.860;2022-09-03T07:27:03;19.40;91.40
45868;DHT22;31582;45.490;7.860;2022-09-03T07:29:31;19.30;92.30
45868;DHT22;31582;45.490;7.860;2022-09-03T07:31:57;19.30;92.10
45868;DHT22;31582;45.490;7.860;2022-09-03T07:34:24;19.30;92.30
45868;DHT22;31582;45.490;7.860;2022-09-03T07:36:52;19.30;92.30
45868;DHT22;31582;45.490;7.860;2022-09-03T07:39:19;19.30;92.30
45868;DHT22;31582;45.490;7.860;2022-09-03T07:41:46;19.30;92.20
45868;DHT22;31582;45.490;7.860;2022-09-03T07:44:13;19.30;92.00
45868;DHT22;31582;45.490;7.860;2022-09-03T07:46:41;19.40;92.00
45868;DHT22;31582;45.490;7.860;2022-09-03T07:49:11;19.40;92.30
45868;DHT22;31582;45.490;7.860;2022-09-03T07:51:37;19.30;92.70
45868;DHT22;31582;45.490;7.860;2022-09-03T07:54:05;19.30;92.60
45868;DHT22;31582;45.490;7.860;2022-09-03T07:56:33;19.30;92.90
45868;DHT22;31582;45.490;7.860;2022-09-03T07:59:01;19.30;93.20
45868;DHT22;31582;45.490;7.860;2022-09-03T08:01:29;19.30;92.70
45868;DHT22;31582;45.490;7.860;2022-09-03T08:03:59;19.40;92.10
45868;DHT22;31582;45.490;7.860;2022-09-03T08:06:27;19.40;91.90
45868;DHT22;31582;45.490;7.860;2022-09-03T08:08:54;19.50;91.80
45868;DHT22;31582;45.490;7.860;2022-09-03T08:11:29;19.50;91.80
45868;DHT22;31582;45.490;7.860;2022-09-03T08:13:57;19.50;91.60
45868;DHT22;31582;45.490;7.860;2022-09-03T08:16:29;19.50;91.90
45868;DHT22;31582;45.490;7.860;2022-09-03T08:18:56;19.50;92.10
45868;DHT22;31582;45.490;7.860;2022-09-03T08:21:23;19.50;91.80
45868;DHT22;31582;45.490;7.860;2022-09-03T08:23:50;19.60;91.20
45868;DHT22;31582;45.490;7.860;2022-09-03T08:26:18;19.70;90.80
45868;DHT22;31582;45.490;7.860;2022-09-03T08:28:45;19.90;90.60
45868;DHT22;31582;45.490;7.860;2022-09-03T08:31:19;20.20;89.90
45868;DHT22;31582;45.490;7.860;2022-09-03T08:33:47;20.60;87.70
45868;DHT22;31582;45.490;7.860;2022-09-03T08:36:15;21.00;86.20
45868;DHT22;31582;45.490;7.860;2022-09-03T08:38:44;21.30;83.30
45868;DHT22;31582;45.490;7.860;2022-09-03T08:47:13;21.70;79.90
45868;DHT22;31582;45.490;7.860;2022-09-03T08:52:17;21.80;81.40
45868;DHT22;31582;45.490;7.860;2022-09-03T08:54:47;21.90;79.60
45868;DHT22;31582;45.490;7.860;2022-09-03T08:57:15;22.00;76.90
45868;DHT22;31582;45.490;7.860;2022-09-03T08:59:47;22.00;76.80
45868;DHT22;31582;45.490;7.860;2022-09-03T09:02:32;22.10;76.00
45868;DHT22;31582;45.490;7.860;2022-09-03T09:05:11;22.10;74.90
45868;DHT22;31582;45.490;7.860;2022-09-03T09:07:56;22.10;75.80
45868;DHT22;31582;45.490;7.860;2022-09-03T09:10:34;22.10;75.10
45868;DHT22;31582;45.490;7.860;2022-09-03T09:15:53;22.30;74.00
45868;DHT22;31582;45.490;7.860;2022-09-03T09:21:27;22.40;71.70
45868;DHT22;31582;45.490;7.860;2022-09-03T09:24:03;22.40;71.30
45868;DHT22;31582;45.490;7.860;2022-09-03T09:26:33;22.50;72.50
45868;DHT22;31582;45.490;7.860;2022-09-03T09:29:05;22.50;72.40
45868;DHT22;31582;45.490;7.860;2022-09-03T09:31:37;22.30;71.00
45868;DHT22;31582;45.490;7.860;2022-09-03T09:34:07;22.30;72.10
45868;DHT22;31582;45.490;7.860;2022-09-03T09:36:42;22.20;71.90
45868;DHT22;31582;45.490;7.860;2022-09-03T09:39:12;22.10;72.70
45868;DHT22;31582;45.490;7.860;2022-09-03T09:41:42;22.10;73.20
45868;DHT22;31582;45.490;7.860;2022-09-03T09:44:19;22.30;72.10
45868;DHT22;31582;45.490;7.860;2022-09-03T09:46:46;22.30;71.20
45868;DHT22;31582;45.490;7.860;2022-09-03T09:49:34;22.40;71.00
45868;DHT22;31582;45.490;7.860;2022-09-03T09:54:32;22.80;69.00
45868;DHT22;31582;45.490;7.860;2022-09-03T09:57:04;22.90;68.70
45868;DHT22;31582;45.490;7.860;2022-09-03T09:59:32;22.90;66.40
45868;DHT22;31582;45.490;7.860;2022-09-03T10:02:14;22.90;67.90
45868;DHT22;31582;45.490;7.860;2022-09-03T10:04:48;22.90;66.70
45868;DHT22;31582;45.490;7.860;2022-09-03T10:07:28;22.80;66.90
45868;DHT22;31582;45.490;7.860;2022-09-03T10:10:18;22.70;67.60
45868;DHT22;31582;45.490;7.860;2022-09-03T10:12:52;22.70;67.10
45868;DHT22;31582;45.490;7.860;2022-09-03T10:18:44;22.70;66.70
45868;DHT22;31582;45.490;7.860;2022-09-03T10:21:14;22.70;65.20
45868;DHT22;31582;45.490;7.860;2022-09-03T10:24:03;22.60;65.70
45868;DHT22;31582;45.490;7.860;2022-09-03T10:26:42;22.60;65.50
45868;DHT22;31582;45.490;7.860;2022-09-03T10:29:13;22.60;65.90
45868;DHT22;31582;45.490;7.860;2022-09-03T10:31:44;22.70;65.80
45868;DHT22;31582;45.490;7.860;2022-09-03T10:34:31;22.80;65.30
45868;DHT22;31582;45.490;7.860;2022-09-03T10:39:51;23.10;64.20
45868;DHT22;31582;45.490;7.860;2022-09-03T10:45:18;23.30;61.70
45868;DHT22;31582;45.490;7.860;2022-09-03T10:54:31;23.70;60.80
45868;DHT22;31582;45.490;7.860;2022-09-03T10:57:10;23.90;59.60
45868;DHT22;31582;45.490;7.860;2022-09-03T11:00:03;24.10;58.60
45868;DHT22;31582;45.490;7.860;2022-09-03T11:05:13;24.10;56.70
45868;DHT22;31582;45.490;7.860;2022-09-03T11:07:51;24.30;57.60
45868;DHT22;31582;45.490;7.860;2022-09-03T11:10:24;24.40;57.00
45868;DHT22;31582;45.490;7.860;2022-09-03T11:13:19;24.80;57.10
45868;DHT22;31582;45.490;7.860;2022-09-03T11:16:13;25.10;53.40
45868;DHT22;31582;45.490;7.860;2022-09-03T11:18:45;25.10;53.10
45868;DHT22;31582;45.490;7.860;2022-09-03T11:21:17;25.10;54.60
45868;DHT22;31582;45.490;7.860;2022-09-03T11:24:07;25.30;53.10
45868;DHT22;31582;45.490;7.860;2022-09-03T11:26:36;25.40;52.10
45868;DHT22;31582;45.490;7.860;2022-09-03T11:29:11;25.60;51.90
45868;DHT22;31582;45.490;7.860;2022-09-03T11:34:14;25.80;52.30
45868;DHT22;31582;45.490;7.860;2022-09-03T11:36:49;25.70;52.70
45868;DHT22;31582;45.490;7.860;2022-09-03T11:39:34;25.70;50.80
45868;DHT22;31582;45.490;7.860;2022-09-03T11:42:08;25.80;51.80
45868;DHT22;31582;45.490;7.860;2022-09-03T11:44:38;25.60;51.00
45868;DHT22;31582;45.490;7.860;2022-09-03T11:47:37;25.40;51.40
45868;DHT22;31582;45.490;7.860;2022-09-03T11:50:26;25.40;52.00
45868;DHT22;31582;45.490;7.860;2022-09-03T11:53:26;25.30;52.20
45868;DHT22;31582;45.490;7.860;2022-09-03T11:58:36;24.90;52.10
45868;DHT22;31582;45.490;7.860;2022-09-03T12:01:15;25.20;52.60
45868;DHT22;31582;45.490;7.860;2022-09-03T12:04:02;25.30;52.60
45868;DHT22;31582;45.490;7.860;2022-09-03T12:15:13;26.00;50.50
45868;DHT22;31582;45.490;7.860;2022-09-03T12:20:37;26.40;51.20
45868;DHT22;31582;45.490;7.860;2022-09-03T12:23:04;26.60;49.10
45868;DHT22;31582;45.490;7.860;2022-09-03T12:25:32;26.60;49.80
45868;DHT22;31582;45.490;7.860;2022-09-03T12:28:01;26.60;48.10
45868;DHT22;31582;45.490;7.860;2022-09-03T12:30:31;26.50;50.40
45868;DHT22;31582;45.490;7.860;2022-09-03T12:33:04;26.80;50.60
45868;DHT22;31582;45.490;7.860;2022-09-03T12:35:32;27.00;49.80
45868;DHT22;31582;45.490;7.860;2022-09-03T12:38:22;27.10;48.00
45868;DHT22;31582;45.490;7.860;2022-09-03T12:40:49;27.10;48.30
45868;DHT22;31582;45.490;7.860;2022-09-03T12:43:35;27.00;48.50
45868;DHT22;31582;45.490;7.860;2022-09-03T12:46:04;26.80;49.30
45868;DHT22;31582;45.490;7.860;2022-09-03T12:48:55;27.10;48.10
45868;DHT22;31582;45.490;7.860;2022-09-03T12:51:43;27.10;49.00
45868;DHT22;31582;45.490;7.860;2022-09-03T12:54:21;27.00;48.20
45868;DHT22;31582;45.490;7.860;2022-09-03T12:56:52;26.50;49.30
45868;DHT22;31582;45.490;7.860;2022-09-03T12:59:22;26.60;48.60
45868;DHT22;31582;45.490;7.860;2022-09-03T13:01:53;26.70;50.10
45868;DHT22;31582;45.490;7.860;2022-09-03T13:04:28;26.70;49.50
45868;DHT22;31582;45.490;7.860;2022-09-03T13:07:07;26.40;48.80
45868;DHT22;31582;45.490;7.860;2022-09-03T13:09:38;26.30;49.60
45868;DHT22;31582;45.490;7.860;2022-09-03T13:12:05;26.10;50.30
45868;DHT22;31582;45.490;7.860;2022-09-03T13:14:42;26.40;51.50
45868;DHT22;31582;45.490;7.860;2022-09-03T13:20:13;26.40;49.60
45868;DHT22;31582;45.490;7.860;2022-09-03T13:23:13;26.60;47.90
45868;DHT22;31582;45.490;7.860;2022-09-03T13:31:33;27.60;47.60
45868;DHT22;31582;45.490;7.860;2022-09-03T13:34:06;28.30;47.70
45868;DHT22;31582;45.490;7.860;2022-09-03T13:36:57;28.80;45.80
45868;DHT22;31582;45.490;7.860;2022-09-03T13:39:40;29.10;43.20
45868;DHT22;31582;45.490;7.860;2022-09-03T13:42:25;28.90;43.30
45868;DHT22;31582;45.490;7.860;2022-09-03T13:45:25;28.80;43.60
45868;DHT22;31582;45.490;7.860;2022-09-03T13:51:13;28.00;44.90
45868;DHT22;31582;45.490;7.860;2022-09-03T13:56:47;27.30;48.20
45868;DHT22;31582;45.490;7.860;2022-09-03T13:59:24;27.70;47.30
45868;DHT22;31582;45.490;7.860;2022-09-03T14:07:25;27.20;48.20
45868;DHT22;31582;45.490;7.860;2022-09-03T14:12:28;26.80;48.40
45868;DHT22;31582;45.490;7.860;2022-09-03T14:14:59;26.80;49.10
45868;DHT22;31582;45.490;7.860;2022-09-03T14:20:39;26.60;48.90
45868;DHT22;31582;45.490;7.860;2022-09-03T14:25:51;26.40;50.40
45868;DHT22;31582;45.490;7.860;2022-09-03T14:28:41;26.10;50.00
45868;DHT22;31582;45.490;7.860;2022-09-03T14:31:18;26.10;51.70
45868;DHT22;31582;45.490;7.860;2022-09-03T14:39:46;25.80;52.20
45868;DHT22;31582;45.490;7.860;2022-09-03T14:48:08;25.70;53.00
45868;DHT22;31582;45.490;7.860;2022-09-03T14:54:01;25.70;53.50
45868;DHT22;31582;45.490;7.860;2022-09-03T15:10:54;25.60;54.20
45868;DHT22;31582;45.490;7.860;2022-09-03T15:13:44;25.80;54.10
45868;DHT22;31582;45.490;7.860;2022-09-03T15:19:18;25.80;54.50
45868;DHT22;31582;45.490;7.860;2022-09-03T15:22:18;25.60;54.40
45868;DHT22;31582;45.490;7.860;2022-09-03T15:24:55;25.50;54.70
45868;DHT22;31582;45.490;7.860;2022-09-03T15:28:04;25.30;54.20
45868;DHT22;31582;45.490;7.860;2022-09-03T15:30:43;25.20;54.90
45868;DHT22;31582;45.490;7.860;2022-09-03T15:36:05;24.90;56.20
45868;DHT22;31582;45.490;7.860;2022-09-03T15:44:17;24.50;57.20
45868;DHT22;31582;45.490;7.860;2022-09-03T15:46:59;24.50;57.00
45868;DHT22;31582;45.490;7.860;2022-09-03T15:50:14;24.60;57.30
45868;DHT22;31582;45.490;7.860;2022-09-03T15:52:51;24.40;57.70
45868;DHT22;31582;45.490;7.860;2022-09-03T15:55:42;24.40;58.30
45868;DHT22;31582;45.490;7.860;2022-09-03T15:58:33;24.40;58.40
45868;DHT22;31582;45.490;7.860;2022-09-03T16:01:17;24.20;58.60
45868;DHT22;31582;45.490;7.860;2022-09-03T16:06:24;24.10;59.30
45868;DHT22;31582;45.490;7.860;2022-09-03T16:08:57;24.30;59.50
45868;DHT22;31582;45.490;7.860;2022-09-03T16:13:54;24.40;59.30
45868;DHT22;31582;45.490;7.860;2022-09-03T16:19:11;24.40;58.40
45868;DHT22;31582;45.490;7.860;2022-09-03T16:21:50;24.50;58.30
45868;DHT22;31582;45.490;7.860;2022-09-03T16:24:25;24.60;58.40
45868;DHT22;31582;45.490;7.860;2022-09-03T16:26:55;24.60;57.90
45868;DHT22;31582;45.490;7.860;2022-09-03T16:29:28;24.60;57.50
45868;DHT22;31582;45.490;7.860;2022-09-03T16:32:08;24.60;58.00
45868;DHT22;31582;45.490;7.860;2022-09-03T16:37:21;24.60;57.80
45868;DHT22;31582;45.490;7.860;2022-09-03T16:39:56;24.50;57.40
45868;DHT22;31582;45.490;7.860;2022-09-03T16:42:31;24.50;57.80
45868;DHT22;31582;45.490;7.860;2022-09-03T16:50:23;24.10;58.40
45868;DHT22;31582;45.490;7.860;2022-09-03T16:53:03;24.00;59.10
45868;DHT22;31582;45.490;7.860;2022-09-03T16:55:51;24.00;59.20
45868;DHT22;31582;45.490;7.860;2022-09-03T17:06:07;24.00;59.40
45868;DHT22;31582;45.490;7.860;2022-09-03T17:08:42;23.90;59.80
45868;DHT22;31582;45.490;7.860;2022-09-03T17:14:06;23.90;59.50
45868;DHT22;31582;45.490;7.860;2022-09-03T17:19:34;23.90;60.10
45868;DHT22;31582;45.490;7.860;2022-09-03T17:24:50;23.80;59.00
45868;DHT22;31582;45.490;7.860;2022-09-03T17:27:29;23.80;59.40
45868;DHT22;31582;45.490;7.860;2022-09-03T17:30:06;23.70;59.60
45868;DHT22;31582;45.490;7.860;2022-09-03T17:35:12;23.70;59.80
45868;DHT22;31582;45.490;7.860;2022-09-03T17:40:34;23.70;60.50
45868;DHT22;31582;45.490;7.860;2022-09-03T17:50:44;23.50;60.00
45868;DHT22;31582;45.490;7.860;2022-09-03T17:56:03;23.50;60.50
45868;DHT22;31582;45.490;7.860;2022-09-03T17:58:34;23.50;61.20
45868;DHT22;31582;45.490;7.860;2022-09-03T18:11:48;23.40;64.80
45868;DHT22;31582;45.490;7.860;2022-09-03T18:14:19;23.30;65.90
45868;DHT22;31582;45.490;7.860;2022-09-03T18:16:49;23.30;65.90
45868;DHT22;31582;45.490;7.860;2022-09-03T18:19:34;23.20;65.90
45868;DHT22;31582;45.490;7.860;2022-09-03T18:22:21;23.10;66.80
45868;DHT22;31582;45.490;7.860;2022-09-03T18:25:08;23.10;67.00
45868;DHT22;31582;45.490;7.860;2022-09-03T18:27:57;23.00;67.20
45868;DHT22;31582;45.490;7.860;2022-09-03T18:30:43;23.00;67.30
45868;DHT22;31582;45.490;7.860;2022-09-03T18:33:29;22.90;67.40
45868;DHT22;31582;45.490;7.860;2022-09-03T18:36:14;22.90;67.40
45868;DHT22;31582;45.490;7.860;2022-09-03T18:59:13;22.80;69.10
45868;DHT22;31582;45.490;7.860;2022-09-03T19:02:06;22.70;68.90
45868;DHT22;31582;45.490;7.860;2022-09-03T19:07:46;22.60;69.40
45868;DHT22;31582;45.490;7.860;2022-09-03T19:10:49;22.50;69.60
45868;DHT22;31582;45.490;7.860;2022-09-03T19:13:38;22.40;69.60
45868;DHT22;31582;45.490;7.860;2022-09-03T19:19:25;22.30;70.30
45868;DHT22;31582;45.490;7.860;2022-09-03T19:22:36;22.30;70.80
45868;DHT22;31582;45.490;7.860;2022-09-03T19:25:20;22.20;71.50
45868;DHT22;31582;45.490;7.860;2022-09-03T19:28:16;22.00;71.80
45868;DHT22;31582;45.490;7.860;2022-09-03T19:46:20;21.30;76.20
45868;DHT22;31582;45.490;7.860;2022-09-03T19:52:18;21.30;75.00
45868;DHT22;31582;45.490;7.860;2022-09-03T19:55:03;21.30;75.00
45868;DHT22;31582;45.490;7.860;2022-09-03T19:57:52;21.30;76.20
45868;DHT22;31582;45.490;7.860;2022-09-03T20:00:58;21.30;76.40
45868;DHT22;31582;45.490;7.860;2022-09-03T20:03:44;21.30;76.50
45868;DHT22;31582;45.490;7.860;2022-09-03T20:06:30;21.20;78.10
45868;DHT22;31582;45.490;7.860;2022-09-03T20:09:16;21.20;78.00
45868;DHT22;31582;45.490;7.860;2022-09-03T20:12:03;21.20;77.20
45868;DHT22;31582;45.490;7.860;2022-09-03T20:14:35;21.20;76.80
45868;DHT22;31582;45.490;7.860;2022-09-03T20:27:38;21.40;75.30
45868;DHT22;31582;45.490;7.860;2022-09-03T20:30:12;21.40;74.80
45868;DHT22;31582;45.490;7.860;2022-09-03T20:35:09;21.50;74.70
45868;DHT22;31582;45.490;7.860;2022-09-03T20:37:53;21.50;75.10
45868;DHT22;31582;45.490;7.860;2022-09-03T20:40:24;21.50;75.60
45868;DHT22;31582;45.490;7.860;2022-09-03T20:51:31;21.40;75.60
45868;DHT22;31582;45.490;7.860;2022-09-03T20:59:07;21.50;74.90
45868;DHT22;31582;45.490;7.860;2022-09-03T21:01:42;21.50;75.80
45868;DHT22;31582;45.490;7.860;2022-09-03T21:06:54;21.40;75.40
45868;DHT22;31582;45.490;7.860;2022-09-03T21:15:15;21.30;76.00
45868;DHT22;31582;45.490;7.860;2022-09-03T21:17:51;21.30;76.50
45868;DHT22;31582;45.490;7.860;2022-09-03T21:20:27;21.20;76.70
45868;DHT22;31582;45.490;7.860;2022-09-03T21:23:10;21.20;76.70
45868;DHT22;31582;45.490;7.860;2022-09-03T21:25:44;21.20;77.40
45868;DHT22;31582;45.490;7.860;2022-09-03T21:28:13;21.20;76.60